Pagrindinis puslapis
METAR-TAF:

METAR-TAF

Oro uostai :

Whiting_Field_Naval_Air_Station_South_Airport

Milton, Florida, Jungtinės Amerikos Valstijos

platuma: 30-41-50N, ilguma: 087-01-12W, Aukštis: 54 m

Dabartinis oras

Ataskaita buvo paskelbta 25 minutes, ne 17:56 UTC
Vėjas 5 kt nuo kintamojo kryptimis
Temperatūra 22°C
Drėgmė 41%
Slėgis 1016 hPa
Matomumas: 16.1 km
Su prošvaistėmis ne aukštis 25000 ft

METAR: KNDZ 171756Z VRB05KT 10SM BKN250 22/08 A2999 RMK AO2 SLP143 T02170078 10217 20106 58019 $

Laikas: 13:21 (18:21 UTC)


TAF: trūkstamas

Orai ataskaitas ir orų prognozės (METAR, TAF).

turimą stotys yra geltonos ir raudonos taškus žemėlapyje.

Perkelti pele per norėdami pamatyti stoties vardą.

Tada spustelėkite, norėdami matyti oro stebėjimo ir prognozės.

Norėdami pakeisti žemėlapį: spustelėkite ant žalios mygtukų su juodo kryžiaus žemyn,; žalią mygtuką su brūkšneliu, jei norite nutolinti; arba žalių rodyklių gretimoms žemėlapius.


METAR-TAF: